createdAt,value
2022-10-09T00:02:26.371Z,10.41
2022-10-09T00:07:29.940Z,10.14
2022-10-09T00:12:33.630Z,10.08
2022-10-09T00:17:37.094Z,9.73
2022-10-09T00:22:40.978Z,9.69
2022-10-09T00:27:44.412Z,10.12
2022-10-09T00:32:48.296Z,10.20
2022-10-09T00:37:52.186Z,10.25
2022-10-09T00:42:59.461Z,10.45
2022-10-09T00:48:07.785Z,9.88
2022-10-09T00:53:16.874Z,9.97
2022-10-09T00:58:21.174Z,12.19
2022-10-09T01:03:24.670Z,13.52
2022-10-09T01:08:56.007Z,14.08
2022-10-09T01:14:20.454Z,14.54
2022-10-09T01:19:42.906Z,14.81
2022-10-09T01:24:55.945Z,15.07
2022-10-09T01:30:13.433Z,14.98
2022-10-09T01:35:18.623Z,15.28
2022-10-09T01:40:23.495Z,15.44
2022-10-09T01:45:41.001Z,15.63
2022-10-09T01:50:47.107Z,15.58
2022-10-09T01:56:21.982Z,15.51
2022-10-09T02:01:28.179Z,15.29
2022-10-09T02:06:32.399Z,14.30
2022-10-09T02:11:37.516Z,15.77
2022-10-09T02:16:45.586Z,15.41
2022-10-09T02:22:01.787Z,15.55
2022-10-09T02:27:05.843Z,14.97
2022-10-09T02:32:09.743Z,14.28
2022-10-09T02:37:14.195Z,15.44
2022-10-09T02:42:18.063Z,14.77
2022-10-09T02:47:21.791Z,13.89
2022-10-09T02:52:27.375Z,14.69
2022-10-09T02:57:31.230Z,15.50
2022-10-09T03:02:34.977Z,14.17
2022-10-09T03:07:38.664Z,15.08
2022-10-09T03:12:42.393Z,14.84
2022-10-09T03:17:45.895Z,15.15
2022-10-09T03:22:49.616Z,15.69
2022-10-09T03:33:37.936Z,15.29
2022-10-09T03:39:03.577Z,15.72
2022-10-09T03:44:07.402Z,15.67
2022-10-09T03:49:11.215Z,14.33
2022-10-09T03:54:14.962Z,15.58
2022-10-09T03:59:20.298Z,14.03
2022-10-09T04:04:29.119Z,15.22
2022-10-09T04:09:32.707Z,14.86
2022-10-09T04:14:37.120Z,14.75
2022-10-09T04:19:41.109Z,15.48
2022-10-09T04:25:17.166Z,15.73
2022-10-09T04:30:21.042Z,15.25
2022-10-09T04:35:24.769Z,14.73
2022-10-09T04:40:28.939Z,15.05
2022-10-09T04:45:32.686Z,15.49
2022-10-09T04:50:39.716Z,14.64
2022-10-09T04:55:44.706Z,15.52
2022-10-09T05:00:48.960Z,15.53
2022-10-09T05:05:52.548Z,14.81
2022-10-09T05:11:03.794Z,15.53
2022-10-09T05:16:12.164Z,14.68
2022-10-09T05:21:16.759Z,15.54
2022-10-09T05:26:22.028Z,15.52
2022-10-09T05:31:29.314Z,15.52
2022-10-09T05:36:33.182Z,15.52
2022-10-09T05:41:37.136Z,14.82
2022-10-09T05:46:40.717Z,15.20
2022-10-09T05:51:50.706Z,15.65
2022-10-09T05:56:56.501Z,15.08
2022-10-09T06:02:00.313Z,14.62
2022-10-09T06:07:04.058Z,15.64
2022-10-09T06:12:07.786Z,14.61
2022-10-09T06:17:11.304Z,15.24
2022-10-09T06:22:24.862Z,15.82
2022-10-09T06:27:29.065Z,15.78
2022-10-09T06:32:33.943Z,15.93
2022-10-09T06:37:41.443Z,15.99
2022-10-09T06:42:45.073Z,15.28
2022-10-09T06:47:48.695Z,15.78
2022-10-09T06:52:52.334Z,15.69
2022-10-09T06:57:55.993Z,15.85
2022-10-09T07:02:59.948Z,16.28
2022-10-09T07:08:03.647Z,16.38
2022-10-09T07:13:07.314Z,16.24
2022-10-09T07:18:10.988Z,16.39
2022-10-09T07:23:18.974Z,16.18
2022-10-09T07:28:22.641Z,16.86
2022-10-09T07:33:26.232Z,16.96
2022-10-09T07:38:39.949Z,16.70
2022-10-09T07:43:44.393Z,16.46
2022-10-09T07:48:48.562Z,17.08
2022-10-09T07:53:52.549Z,17.12
2022-10-09T07:58:59.466Z,17.02
2022-10-09T08:04:04.378Z,17.07
2022-10-09T08:09:10.085Z,17.02
2022-10-09T08:14:18.986Z,17.26
2022-10-09T08:19:23.073Z,17.60
2022-10-09T08:24:27.198Z,17.59
2022-10-09T08:29:30.617Z,16.86
2022-10-09T08:34:34.273Z,17.97
2022-10-09T08:39:37.239Z,18.48
2022-10-09T08:44:43.449Z,18.50
2022-10-09T08:49:58.215Z,18.48
2022-10-09T08:55:09.204Z,18.43
2022-10-09T09:00:23.476Z,18.59
2022-10-09T09:05:36.213Z,18.49
2022-10-09T09:10:49.536Z,19.05
2022-10-09T09:15:59.546Z,19.16
2022-10-09T09:21:17.221Z,19.42
2022-10-09T09:26:22.608Z,19.25
2022-10-09T09:31:38.188Z,19.30
2022-10-09T09:37:00.154Z,19.99
2022-10-09T09:42:14.366Z,19.67
2022-10-09T09:47:24.672Z,20.64
2022-10-09T09:52:31.499Z,20.37
2022-10-09T09:57:40.886Z,20.33
2022-10-09T10:02:47.178Z,20.87
2022-10-09T10:07:53.492Z,20.45
2022-10-09T10:12:59.550Z,20.67
2022-10-09T10:18:04.568Z,20.09
2022-10-09T10:24:04.409Z,20.52
2022-10-09T10:29:10.980Z,20.38
2022-10-09T10:35:06.967Z,20.46
2022-10-09T10:40:33.161Z,19.76
2022-10-09T10:45:44.740Z,20.20
2022-10-09T10:50:57.150Z,19.89
2022-10-09T10:56:07.031Z,19.56
2022-10-09T11:01:31.437Z,19.73
2022-10-09T11:06:42.788Z,19.37
2022-10-09T11:11:48.385Z,19.14
2022-10-09T11:17:03.175Z,19.62
2022-10-09T11:22:55.043Z,19.41
2022-10-09T11:28:23.001Z,19.00
2022-10-09T11:33:42.417Z,19.29
2022-10-09T11:38:49.878Z,19.22
2022-10-09T11:44:09.211Z,19.43
2022-10-09T11:49:40.427Z,19.07
2022-10-09T11:54:43.357Z,18.80
2022-10-09T11:59:46.297Z,18.78
2022-10-09T12:04:56.270Z,18.97
2022-10-09T12:10:09.996Z,19.56
2022-10-09T12:15:28.313Z,19.83
2022-10-09T12:20:31.577Z,19.42
2022-10-09T12:25:44.889Z,18.85
2022-10-09T12:30:51.285Z,18.71
2022-10-09T12:36:14.285Z,19.43
2022-10-09T12:41:31.052Z,19.45
2022-10-09T12:46:40.128Z,19.51
2022-10-09T12:51:43.059Z,19.17
2022-10-09T12:56:48.032Z,18.64
2022-10-09T13:01:56.731Z,18.62
2022-10-09T13:07:06.791Z,19.19
2022-10-09T13:12:24.537Z,19.15
2022-10-09T13:17:40.130Z,19.31
2022-10-09T13:22:57.168Z,18.96
2022-10-09T13:28:00.173Z,19.15
2022-10-09T13:33:04.554Z,18.47
2022-10-09T13:38:07.535Z,18.83
2022-10-09T13:43:18.636Z,17.93
2022-10-09T13:48:22.020Z,18.98
2022-10-09T13:53:24.957Z,18.38
2022-10-09T13:58:28.116Z,18.34
2022-10-09T14:03:30.875Z,17.16
2022-10-09T14:08:33.775Z,18.34
2022-10-09T14:13:46.682Z,17.58
2022-10-09T14:18:49.348Z,18.25
2022-10-09T14:24:00.553Z,17.98
2022-10-09T14:29:04.666Z,18.56
2022-10-09T14:34:07.970Z,18.28
2022-10-09T14:39:11.166Z,16.36
2022-10-09T14:44:14.381Z,18.22
2022-10-09T14:49:17.417Z,18.27
2022-10-09T14:54:20.272Z,17.93
2022-10-09T14:59:23.043Z,17.94
2022-10-09T15:04:27.167Z,18.34
2022-10-09T15:09:29.934Z,18.09
2022-10-09T15:14:32.940Z,18.00
2022-10-09T15:19:35.704Z,17.30
2022-10-09T15:24:38.669Z,16.90
2022-10-09T15:29:41.730Z,15.99
2022-10-09T15:34:44.399Z,16.94
2022-10-09T15:39:47.271Z,16.36
2022-10-09T15:44:49.943Z,15.66
2022-10-09T15:49:53.542Z,16.10
2022-10-09T15:54:56.251Z,16.37
2022-10-09T16:00:10.805Z,16.42
2022-10-09T16:05:13.579Z,16.28
2022-10-09T16:10:16.368Z,16.56
2022-10-09T16:15:19.130Z,16.32
2022-10-09T16:20:22.165Z,15.98
2022-10-09T16:25:25.055Z,16.18
2022-10-09T16:30:29.783Z,15.50
2022-10-09T16:35:32.467Z,15.63
2022-10-09T16:41:00.755Z,16.06
2022-10-09T16:46:12.421Z,15.96
2022-10-09T16:51:18.725Z,15.56
2022-10-09T16:56:24.701Z,15.76
2022-10-09T17:01:28.771Z,15.81
2022-10-09T17:06:44.955Z,15.89
2022-10-09T17:11:48.490Z,15.81
2022-10-09T17:16:51.374Z,15.41
2022-10-09T17:21:54.989Z,14.55
2022-10-09T17:26:57.993Z,14.79
2022-10-09T17:32:00.750Z,15.12
2022-10-09T17:37:03.660Z,15.51
2022-10-09T17:42:06.573Z,14.39
2022-10-09T17:47:09.450Z,14.83
2022-10-09T17:52:12.255Z,15.32
2022-10-09T17:57:15.182Z,15.46
2022-10-09T18:02:18.310Z,14.97
2022-10-09T18:07:21.077Z,13.56
2022-10-09T18:12:23.903Z,14.58
2022-10-09T18:17:31.054Z,14.88
2022-10-09T18:22:36.820Z,15.38
2022-10-09T18:27:40.148Z,15.16
2022-10-09T18:39:42.210Z,14.94
2022-10-09T18:44:45.347Z,14.86
2022-10-09T18:49:53.386Z,14.04
2022-10-09T18:54:57.173Z,14.98
2022-10-09T19:00:01.839Z,14.81
2022-10-09T19:05:04.874Z,15.01
2022-10-09T19:10:08.796Z,14.96
2022-10-09T19:15:12.433Z,14.77
2022-10-09T19:20:15.573Z,14.48
2022-10-09T19:25:26.472Z,14.82
2022-10-09T19:30:33.405Z,14.63
2022-10-09T19:42:33.251Z,14.75
2022-10-09T19:47:36.204Z,14.10
2022-10-09T19:52:49.712Z,14.37
2022-10-09T19:57:53.840Z,14.50
2022-10-09T20:02:57.044Z,14.40
2022-10-09T20:08:01.286Z,14.51
2022-10-09T20:13:06.495Z,14.12
2022-10-09T20:18:09.251Z,14.39
2022-10-09T20:23:11.985Z,13.83
2022-10-09T20:28:16.784Z,14.33
2022-10-09T20:33:19.582Z,14.14
2022-10-09T20:38:25.812Z,14.35
2022-10-09T20:43:28.760Z,14.16
2022-10-09T20:48:31.466Z,14.45
2022-10-09T21:00:30.167Z,14.27
2022-10-09T21:05:33.059Z,14.13
2022-10-09T21:10:36.611Z,13.67
2022-10-09T21:22:27.057Z,13.91
2022-10-09T21:27:29.910Z,14.03
2022-10-09T21:32:34.946Z,14.16
2022-10-09T21:37:38.242Z,13.06
2022-10-09T21:42:41.026Z,14.10
2022-10-09T21:47:43.921Z,13.83
2022-10-09T21:52:49.250Z,13.61
2022-10-09T21:57:52.878Z,13.79
2022-10-09T22:09:56.167Z,14.28
2022-10-09T22:14:59.022Z,14.33
2022-10-09T22:20:03.834Z,14.30
2022-10-09T22:25:07.301Z,13.02
2022-10-09T22:30:10.611Z,14.23
2022-10-09T22:35:13.314Z,13.70
2022-10-09T22:40:16.235Z,14.09
2022-10-09T22:45:18.942Z,14.08
2022-10-09T22:50:21.656Z,13.87
2022-10-09T22:55:24.606Z,14.05
2022-10-09T23:00:27.924Z,13.96
2022-10-09T23:12:24.331Z,13.99
2022-10-09T23:17:27.034Z,13.72
2022-10-09T23:22:29.908Z,13.34
2022-10-09T23:27:32.653Z,13.70
2022-10-09T23:32:35.458Z,14.10
2022-10-09T23:37:38.273Z,13.95
2022-10-09T23:42:41.035Z,13.71
2022-10-09T23:47:43.719Z,13.79
2022-10-09T23:52:46.389Z,13.87
2022-10-09T23:57:51.313Z,13.94
